sensor_id;sensor_type;location;lat;lon;timestamp;P1;durP1;ratioP1;P2;durP2;ratioP2
23046;SDS011;11691;51.462;6.902;2022-12-17T00:01:43;81.47;;;27.37;;
23046;SDS011;11691;51.462;6.902;2022-12-17T00:04:28;100.50;;;28.27;;
23046;SDS011;11691;51.462;6.902;2022-12-17T00:07:12;101.93;;;28.70;;
23046;SDS011;11691;51.462;6.902;2022-12-17T00:09:57;97.87;;;26.77;;
23046;SDS011;11691;51.462;6.902;2022-12-17T00:12:41;90.70;;;26.87;;
23046;SDS011;11691;51.462;6.902;2022-12-17T00:15:26;100.03;;;29.07;;
23046;SDS011;11691;51.462;6.902;2022-12-17T00:18:10;94.33;;;27.07;;
23046;SDS011;11691;51.462;6.902;2022-12-17T00:20:56;109.70;;;30.03;;
23046;SDS011;11691;51.462;6.902;2022-12-17T00:23:40;102.87;;;28.90;;
23046;SDS011;11691;51.462;6.902;2022-12-17T00:26:25;107.93;;;28.40;;
23046;SDS011;11691;51.462;6.902;2022-12-17T00:29:10;95.30;;;29.13;;
23046;SDS011;11691;51.462;6.902;2022-12-17T00:31:54;102.77;;;29.07;;
23046;SDS011;11691;51.462;6.902;2022-12-17T00:34:39;99.43;;;26.47;;
23046;SDS011;11691;51.462;6.902;2022-12-17T00:37:23;101.77;;;26.90;;
23046;SDS011;11691;51.462;6.902;2022-12-17T00:40:08;102.63;;;28.63;;
23046;SDS011;11691;51.462;6.902;2022-12-17T00:43:03;101.07;;;26.93;;
23046;SDS011;11691;51.462;6.902;2022-12-17T00:45:49;86.37;;;28.07;;
23046;SDS011;11691;51.462;6.902;2022-12-17T00:48:34;89.67;;;27.63;;
23046;SDS011;11691;51.462;6.902;2022-12-17T00:51:18;82.47;;;27.27;;
23046;SDS011;11691;51.462;6.902;2022-12-17T00:54:03;99.10;;;28.13;;
23046;SDS011;11691;51.462;6.902;2022-12-17T00:56:47;90.03;;;28.20;;
23046;SDS011;11691;51.462;6.902;2022-12-17T00:59:32;95.73;;;26.70;;
23046;SDS011;11691;51.462;6.902;2022-12-17T01:02:17;103.97;;;29.60;;
23046;SDS011;11691;51.462;6.902;2022-12-17T01:05:01;82.03;;;26.37;;
23046;SDS011;11691;51.462;6.902;2022-12-17T01:07:46;101.20;;;26.73;;
23046;SDS011;11691;51.462;6.902;2022-12-17T01:10:30;89.20;;;26.37;;
23046;SDS011;11691;51.462;6.902;2022-12-17T01:13:15;83.70;;;24.43;;
23046;SDS011;11691;51.462;6.902;2022-12-17T01:16:03;89.73;;;26.40;;
23046;SDS011;11691;51.462;6.902;2022-12-17T01:18:50;81.00;;;22.97;;
23046;SDS011;11691;51.462;6.902;2022-12-17T01:21:34;82.40;;;24.87;;
23046;SDS011;11691;51.462;6.902;2022-12-17T01:24:19;90.80;;;26.27;;
23046;SDS011;11691;51.462;6.902;2022-12-17T01:27:04;98.27;;;27.90;;
23046;SDS011;11691;51.462;6.902;2022-12-17T01:29:48;82.27;;;25.50;;
23046;SDS011;11691;51.462;6.902;2022-12-17T01:32:33;81.90;;;27.47;;
23046;SDS011;11691;51.462;6.902;2022-12-17T01:35:17;82.60;;;24.40;;
23046;SDS011;11691;51.462;6.902;2022-12-17T01:38:02;72.83;;;24.47;;
23046;SDS011;11691;51.462;6.902;2022-12-17T01:40:50;82.33;;;23.83;;
23046;SDS011;11691;51.462;6.902;2022-12-17T01:43:36;80.23;;;24.53;;
23046;SDS011;11691;51.462;6.902;2022-12-17T01:46:21;93.17;;;29.13;;
23046;SDS011;11691;51.462;6.902;2022-12-17T01:49:06;86.33;;;28.00;;
23046;SDS011;11691;51.462;6.902;2022-12-17T01:51:51;89.00;;;27.83;;
23046;SDS011;11691;51.462;6.902;2022-12-17T01:54:36;79.30;;;25.97;;
23046;SDS011;11691;51.462;6.902;2022-12-17T01:57:21;81.50;;;26.10;;
23046;SDS011;11691;51.462;6.902;2022-12-17T02:00:08;90.87;;;27.67;;
23046;SDS011;11691;51.462;6.902;2022-12-17T02:02:54;90.70;;;27.00;;
23046;SDS011;11691;51.462;6.902;2022-12-17T02:05:43;92.20;;;29.37;;
23046;SDS011;11691;51.462;6.902;2022-12-17T02:08:37;102.70;;;29.13;;
23046;SDS011;11691;51.462;6.902;2022-12-17T02:14:19;90.40;;;27.40;;
23046;SDS011;11691;51.462;6.902;2022-12-17T02:17:10;80.83;;;25.23;;
23046;SDS011;11691;51.462;6.902;2022-12-17T02:25:51;89.10;;;25.83;;
23046;SDS011;11691;51.462;6.902;2022-12-17T02:28:38;86.90;;;25.90;;
23046;SDS011;11691;51.462;6.902;2022-12-17T02:31:28;80.70;;;26.57;;
23046;SDS011;11691;51.462;6.902;2022-12-17T02:34:12;86.23;;;25.47;;
23046;SDS011;11691;51.462;6.902;2022-12-17T02:36:57;76.33;;;23.13;;
23046;SDS011;11691;51.462;6.902;2022-12-17T02:39:41;75.00;;;24.43;;
23046;SDS011;11691;51.462;6.902;2022-12-17T02:42:26;77.97;;;23.53;;
23046;SDS011;11691;51.462;6.902;2022-12-17T02:45:12;76.70;;;23.07;;
23046;SDS011;11691;51.462;6.902;2022-12-17T02:47:58;72.87;;;22.63;;
23046;SDS011;11691;51.462;6.902;2022-12-17T02:50:44;67.43;;;22.67;;
23046;SDS011;11691;51.462;6.902;2022-12-17T02:53:31;84.37;;;24.33;;
23046;SDS011;11691;51.462;6.902;2022-12-17T02:56:15;80.83;;;22.43;;
23046;SDS011;11691;51.462;6.902;2022-12-17T02:59:00;74.37;;;22.10;;
23046;SDS011;11691;51.462;6.902;2022-12-17T03:01:44;69.07;;;21.67;;
23046;SDS011;11691;51.462;6.902;2022-12-17T03:04:29;62.63;;;21.00;;
23046;SDS011;11691;51.462;6.902;2022-12-17T03:07:13;70.17;;;22.87;;
23046;SDS011;11691;51.462;6.902;2022-12-17T03:09:58;64.87;;;19.83;;
23046;SDS011;11691;51.462;6.902;2022-12-17T03:12:42;61.93;;;20.23;;
23046;SDS011;11691;51.462;6.902;2022-12-17T03:15:27;58.17;;;18.93;;
23046;SDS011;11691;51.462;6.902;2022-12-17T03:18:12;55.50;;;19.77;;
23046;SDS011;11691;51.462;6.902;2022-12-17T03:20:57;54.73;;;20.03;;
23046;SDS011;11691;51.462;6.902;2022-12-17T03:23:41;58.73;;;19.77;;
23046;SDS011;11691;51.462;6.902;2022-12-17T03:26:26;68.87;;;19.87;;
23046;SDS011;11691;51.462;6.902;2022-12-17T03:29:10;67.03;;;21.43;;
23046;SDS011;11691;51.462;6.902;2022-12-17T03:31:55;67.60;;;20.80;;
23046;SDS011;11691;51.462;6.902;2022-12-17T03:34:39;71.53;;;21.30;;
23046;SDS011;11691;51.462;6.902;2022-12-17T03:37:24;69.10;;;20.83;;
23046;SDS011;11691;51.462;6.902;2022-12-17T03:40:09;73.27;;;22.57;;
23046;SDS011;11691;51.462;6.902;2022-12-17T03:42:53;80.83;;;20.80;;
23046;SDS011;11691;51.462;6.902;2022-12-17T03:45:38;69.47;;;20.87;;
23046;SDS011;11691;51.462;6.902;2022-12-17T03:48:22;69.70;;;20.83;;
23046;SDS011;11691;51.462;6.902;2022-12-17T03:51:07;75.23;;;22.10;;
23046;SDS011;11691;51.462;6.902;2022-12-17T03:53:51;69.33;;;21.73;;
23046;SDS011;11691;51.462;6.902;2022-12-17T03:56:36;66.87;;;22.03;;
23046;SDS011;11691;51.462;6.902;2022-12-17T03:59:20;62.47;;;19.87;;
23046;SDS011;11691;51.462;6.902;2022-12-17T04:02:05;73.77;;;20.63;;
23046;SDS011;11691;51.462;6.902;2022-12-17T04:04:49;80.60;;;23.27;;
23046;SDS011;11691;51.462;6.902;2022-12-17T04:07:34;80.77;;;23.73;;
23046;SDS011;11691;51.462;6.902;2022-12-17T04:10:19;64.20;;;20.53;;
23046;SDS011;11691;51.462;6.902;2022-12-17T04:13:03;69.17;;;22.83;;
23046;SDS011;11691;51.462;6.902;2022-12-17T04:15:51;80.87;;;22.37;;
23046;SDS011;11691;51.462;6.902;2022-12-17T04:18:36;67.63;;;21.53;;
23046;SDS011;11691;51.462;6.902;2022-12-17T04:21:21;76.70;;;21.57;;
23046;SDS011;11691;51.462;6.902;2022-12-17T04:24:05;70.87;;;21.73;;
23046;SDS011;11691;51.462;6.902;2022-12-17T04:26:50;69.97;;;21.53;;
23046;SDS011;11691;51.462;6.902;2022-12-17T04:29:34;68.00;;;21.00;;
23046;SDS011;11691;51.462;6.902;2022-12-17T04:32:19;75.47;;;21.27;;
23046;SDS011;11691;51.462;6.902;2022-12-17T04:35:03;73.63;;;20.90;;
23046;SDS011;11691;51.462;6.902;2022-12-17T04:37:48;68.57;;;20.60;;
23046;SDS011;11691;51.462;6.902;2022-12-17T04:40:33;76.20;;;21.50;;
23046;SDS011;11691;51.462;6.902;2022-12-17T04:43:17;79.20;;;21.33;;
23046;SDS011;11691;51.462;6.902;2022-12-17T04:46:02;63.93;;;22.47;;
23046;SDS011;11691;51.462;6.902;2022-12-17T04:48:46;64.23;;;20.67;;
23046;SDS011;11691;51.462;6.902;2022-12-17T04:51:31;74.53;;;22.77;;
23046;SDS011;11691;51.462;6.902;2022-12-17T04:54:15;65.23;;;21.93;;
23046;SDS011;11691;51.462;6.902;2022-12-17T04:57:00;66.67;;;21.70;;
23046;SDS011;11691;51.462;6.902;2022-12-17T04:59:44;78.27;;;23.87;;
23046;SDS011;11691;51.462;6.902;2022-12-17T05:02:29;63.70;;;22.17;;
23046;SDS011;11691;51.462;6.902;2022-12-17T05:05:13;79.20;;;22.43;;
23046;SDS011;11691;51.462;6.902;2022-12-17T05:07:58;74.90;;;23.20;;
23046;SDS011;11691;51.462;6.902;2022-12-17T05:10:43;70.40;;;22.60;;
23046;SDS011;11691;51.462;6.902;2022-12-17T05:13:27;72.47;;;22.50;;
23046;SDS011;11691;51.462;6.902;2022-12-17T05:16:12;71.67;;;22.20;;
23046;SDS011;11691;51.462;6.902;2022-12-17T05:18:57;62.53;;;21.47;;
23046;SDS011;11691;51.462;6.902;2022-12-17T05:21:41;67.80;;;22.17;;
23046;SDS011;11691;51.462;6.902;2022-12-17T05:24:26;68.20;;;21.63;;
23046;SDS011;11691;51.462;6.902;2022-12-17T05:27:10;81.43;;;23.40;;
23046;SDS011;11691;51.462;6.902;2022-12-17T05:29:55;64.43;;;21.77;;
23046;SDS011;11691;51.462;6.902;2022-12-17T05:32:39;59.70;;;20.97;;
23046;SDS011;11691;51.462;6.902;2022-12-17T05:35:24;69.03;;;21.13;;
23046;SDS011;11691;51.462;6.902;2022-12-17T05:38:09;68.57;;;21.43;;
23046;SDS011;11691;51.462;6.902;2022-12-17T05:40:55;73.53;;;22.60;;
23046;SDS011;11691;51.462;6.902;2022-12-17T05:43:39;68.73;;;22.60;;
23046;SDS011;11691;51.462;6.902;2022-12-17T05:46:24;68.83;;;21.37;;
23046;SDS011;11691;51.462;6.902;2022-12-17T05:49:09;69.20;;;21.90;;
23046;SDS011;11691;51.462;6.902;2022-12-17T05:51:53;78.67;;;22.80;;
23046;SDS011;11691;51.462;6.902;2022-12-17T05:54:38;61.93;;;20.23;;
23046;SDS011;11691;51.462;6.902;2022-12-17T05:57:23;71.33;;;22.27;;
23046;SDS011;11691;51.462;6.902;2022-12-17T06:00:07;61.87;;;21.90;;
23046;SDS011;11691;51.462;6.902;2022-12-17T06:02:57;66.30;;;21.97;;
23046;SDS011;11691;51.462;6.902;2022-12-17T06:05:41;57.20;;;20.30;;
23046;SDS011;11691;51.462;6.902;2022-12-17T06:08:26;66.50;;;21.47;;
23046;SDS011;11691;51.462;6.902;2022-12-17T06:11:11;66.43;;;22.20;;
23046;SDS011;11691;51.462;6.902;2022-12-17T06:13:55;67.00;;;22.40;;
23046;SDS011;11691;51.462;6.902;2022-12-17T06:16:47;63.13;;;22.50;;
23046;SDS011;11691;51.462;6.902;2022-12-17T06:19:32;65.30;;;20.50;;
23046;SDS011;11691;51.462;6.902;2022-12-17T06:22:16;61.90;;;22.13;;
23046;SDS011;11691;51.462;6.902;2022-12-17T06:25:01;66.00;;;22.37;;
23046;SDS011;11691;51.462;6.902;2022-12-17T06:27:45;60.70;;;21.57;;
23046;SDS011;11691;51.462;6.902;2022-12-17T06:30:30;58.40;;;20.47;;
23046;SDS011;11691;51.462;6.902;2022-12-17T06:33:15;69.10;;;21.63;;
23046;SDS011;11691;51.462;6.902;2022-12-17T06:35:59;59.43;;;20.37;;
23046;SDS011;11691;51.462;6.902;2022-12-17T06:38:44;67.37;;;20.60;;
23046;SDS011;11691;51.462;6.902;2022-12-17T06:41:48;56.43;;;18.97;;
23046;SDS011;11691;51.462;6.902;2022-12-17T06:44:32;64.97;;;21.43;;
23046;SDS011;11691;51.462;6.902;2022-12-17T06:47:17;62.50;;;21.03;;
23046;SDS011;11691;51.462;6.902;2022-12-17T06:50:01;61.67;;;19.80;;
23046;SDS011;11691;51.462;6.902;2022-12-17T06:52:46;56.77;;;19.97;;
23046;SDS011;11691;51.462;6.902;2022-12-17T06:55:31;54.03;;;18.03;;
23046;SDS011;11691;51.462;6.902;2022-12-17T06:58:15;55.93;;;19.97;;
23046;SDS011;11691;51.462;6.902;2022-12-17T07:01:00;61.90;;;19.00;;
23046;SDS011;11691;51.462;6.902;2022-12-17T07:03:44;64.60;;;19.93;;
23046;SDS011;11691;51.462;6.902;2022-12-17T07:06:29;53.57;;;18.00;;
23046;SDS011;11691;51.462;6.902;2022-12-17T07:09:13;59.83;;;20.17;;
23046;SDS011;11691;51.462;6.902;2022-12-17T07:12:02;56.23;;;18.27;;
23046;SDS011;11691;51.462;6.902;2022-12-17T07:14:47;56.30;;;18.87;;
23046;SDS011;11691;51.462;6.902;2022-12-17T07:17:32;61.13;;;18.10;;
23046;SDS011;11691;51.462;6.902;2022-12-17T07:20:17;58.23;;;18.57;;
23046;SDS011;11691;51.462;6.902;2022-12-17T07:23:01;53.03;;;17.50;;
23046;SDS011;11691;51.462;6.902;2022-12-17T07:25:46;54.27;;;19.13;;
23046;SDS011;11691;51.462;6.902;2022-12-17T07:28:30;47.77;;;17.83;;
23046;SDS011;11691;51.462;6.902;2022-12-17T07:31:15;49.13;;;16.27;;
23046;SDS011;11691;51.462;6.902;2022-12-17T07:33:59;49.50;;;18.63;;
23046;SDS011;11691;51.462;6.902;2022-12-17T07:36:44;55.33;;;17.93;;
23046;SDS011;11691;51.462;6.902;2022-12-17T07:39:29;53.37;;;19.43;;
23046;SDS011;11691;51.462;6.902;2022-12-17T07:42:13;53.40;;;17.10;;
23046;SDS011;11691;51.462;6.902;2022-12-17T07:44:58;47.00;;;17.47;;
23046;SDS011;11691;51.462;6.902;2022-12-17T07:47:49;45.97;;;17.27;;
23046;SDS011;11691;51.462;6.902;2022-12-17T07:50:34;57.30;;;20.03;;
23046;SDS011;11691;51.462;6.902;2022-12-17T07:53:19;56.83;;;18.43;;
23046;SDS011;11691;51.462;6.902;2022-12-17T07:56:03;50.70;;;17.70;;
23046;SDS011;11691;51.462;6.902;2022-12-17T07:58:48;53.47;;;19.00;;
23046;SDS011;11691;51.462;6.902;2022-12-17T08:01:33;47.93;;;18.37;;
23046;SDS011;11691;51.462;6.902;2022-12-17T08:04:37;49.27;;;17.03;;
23046;SDS011;11691;51.462;6.902;2022-12-17T08:07:32;48.10;;;18.03;;
23046;SDS011;11691;51.462;6.902;2022-12-17T08:10:17;51.80;;;17.00;;
23046;SDS011;11691;51.462;6.902;2022-12-17T08:13:03;42.90;;;16.23;;
23046;SDS011;11691;51.462;6.902;2022-12-17T08:15:48;45.77;;;17.23;;
23046;SDS011;11691;51.462;6.902;2022-12-17T08:18:32;49.20;;;18.63;;
23046;SDS011;11691;51.462;6.902;2022-12-17T08:21:17;47.53;;;17.20;;
23046;SDS011;11691;51.462;6.902;2022-12-17T08:24:01;46.37;;;16.57;;
23046;SDS011;11691;51.462;6.902;2022-12-17T08:26:46;49.70;;;17.10;;
23046;SDS011;11691;51.462;6.902;2022-12-17T08:29:31;43.57;;;16.77;;
23046;SDS011;11691;51.462;6.902;2022-12-17T08:32:16;52.57;;;17.67;;
23046;SDS011;11691;51.462;6.902;2022-12-17T08:35:01;55.30;;;18.60;;
23046;SDS011;11691;51.462;6.902;2022-12-17T08:37:45;46.87;;;17.73;;
23046;SDS011;11691;51.462;6.902;2022-12-17T08:40:30;56.93;;;18.13;;
23046;SDS011;11691;51.462;6.902;2022-12-17T08:43:15;48.03;;;16.67;;
23046;SDS011;11691;51.462;6.902;2022-12-17T08:45:59;55.90;;;18.93;;
23046;SDS011;11691;51.462;6.902;2022-12-17T08:48:44;41.93;;;16.70;;
23046;SDS011;11691;51.462;6.902;2022-12-17T08:51:28;40.40;;;15.60;;
23046;SDS011;11691;51.462;6.902;2022-12-17T08:54:13;40.07;;;15.33;;
23046;SDS011;11691;51.462;6.902;2022-12-17T08:56:57;40.23;;;15.00;;
23046;SDS011;11691;51.462;6.902;2022-12-17T08:59:42;41.23;;;15.07;;
23046;SDS011;11691;51.462;6.902;2022-12-17T09:02:26;44.60;;;15.23;;
23046;SDS011;11691;51.462;6.902;2022-12-17T09:05:11;39.23;;;15.40;;
23046;SDS011;11691;51.462;6.902;2022-12-17T09:08:03;43.40;;;16.50;;
23046;SDS011;11691;51.462;6.902;2022-12-17T09:10:48;37.40;;;15.50;;
23046;SDS011;11691;51.462;6.902;2022-12-17T09:13:33;35.97;;;14.43;;
23046;SDS011;11691;51.462;6.902;2022-12-17T09:16:17;42.83;;;14.93;;
23046;SDS011;11691;51.462;6.902;2022-12-17T09:19:02;46.13;;;16.73;;
23046;SDS011;11691;51.462;6.902;2022-12-17T09:21:47;38.90;;;14.70;;
23046;SDS011;11691;51.462;6.902;2022-12-17T09:24:32;37.07;;;14.13;;
23046;SDS011;11691;51.462;6.902;2022-12-17T09:27:17;42.90;;;14.50;;
23046;SDS011;11691;51.462;6.902;2022-12-17T09:30:02;35.13;;;13.87;;
23046;SDS011;11691;51.462;6.902;2022-12-17T09:32:47;42.50;;;15.60;;
23046;SDS011;11691;51.462;6.902;2022-12-17T09:35:31;41.77;;;15.80;;
23046;SDS011;11691;51.462;6.902;2022-12-17T09:38:16;35.50;;;13.73;;
23046;SDS011;11691;51.462;6.902;2022-12-17T09:41:04;30.90;;;12.40;;
23046;SDS011;11691;51.462;6.902;2022-12-17T09:44:05;33.40;;;13.60;;
23046;SDS011;11691;51.462;6.902;2022-12-17T09:47:02;32.37;;;11.83;;
23046;SDS011;11691;51.462;6.902;2022-12-17T09:49:50;31.50;;;12.47;;
23046;SDS011;11691;51.462;6.902;2022-12-17T09:52:37;29.33;;;12.50;;
23046;SDS011;11691;51.462;6.902;2022-12-17T09:55:24;25.80;;;11.47;;
23046;SDS011;11691;51.462;6.902;2022-12-17T09:58:17;30.10;;;12.20;;
23046;SDS011;11691;51.462;6.902;2022-12-17T10:01:02;27.37;;;11.90;;
23046;SDS011;11691;51.462;6.902;2022-12-17T10:04:06;24.43;;;11.10;;
23046;SDS011;11691;51.462;6.902;2022-12-17T10:06:54;27.53;;;11.43;;
23046;SDS011;11691;51.462;6.902;2022-12-17T10:09:39;28.10;;;11.23;;
23046;SDS011;11691;51.462;6.902;2022-12-17T10:12:24;26.30;;;11.67;;
23046;SDS011;11691;51.462;6.902;2022-12-17T10:15:23;25.23;;;11.67;;
23046;SDS011;11691;51.462;6.902;2022-12-17T10:18:09;26.07;;;11.33;;
23046;SDS011;11691;51.462;6.902;2022-12-17T10:23:39;27.60;;;10.93;;
23046;SDS011;11691;51.462;6.902;2022-12-17T10:26:25;24.43;;;10.47;;
23046;SDS011;11691;51.462;6.902;2022-12-17T10:29:16;21.50;;;9.87;;
23046;SDS011;11691;51.462;6.902;2022-12-17T10:32:16;18.63;;;9.67;;
23046;SDS011;11691;51.462;6.902;2022-12-17T10:37:51;27.13;;;10.83;;
23046;SDS011;11691;51.462;6.902;2022-12-17T10:40:36;31.83;;;12.43;;
23046;SDS011;11691;51.462;6.902;2022-12-17T10:43:30;25.87;;;12.10;;
23046;SDS011;11691;51.462;6.902;2022-12-17T10:46:26;28.43;;;12.20;;
23046;SDS011;11691;51.462;6.902;2022-12-17T10:49:12;27.53;;;12.53;;
23046;SDS011;11691;51.462;6.902;2022-12-17T10:52:01;29.53;;;13.77;;
23046;SDS011;11691;51.462;6.902;2022-12-17T10:54:55;28.30;;;12.77;;
23046;SDS011;11691;51.462;6.902;2022-12-17T10:57:41;31.23;;;13.30;;
23046;SDS011;11691;51.462;6.902;2022-12-17T11:00:28;30.00;;;13.27;;
23046;SDS011;11691;51.462;6.902;2022-12-17T11:06:07;34.57;;;14.43;;
23046;SDS011;11691;51.462;6.902;2022-12-17T11:08:52;30.47;;;14.27;;
23046;SDS011;11691;51.462;6.902;2022-12-17T11:11:37;28.60;;;13.40;;
23046;SDS011;11691;51.462;6.902;2022-12-17T11:14:22;28.63;;;13.40;;
23046;SDS011;11691;51.462;6.902;2022-12-17T11:17:08;30.53;;;13.13;;
23046;SDS011;11691;51.462;6.902;2022-12-17T11:19:59;26.20;;;12.30;;
23046;SDS011;11691;51.462;6.902;2022-12-17T11:22:51;28.30;;;13.17;;
23046;SDS011;11691;51.462;6.902;2022-12-17T11:25:55;25.47;;;12.17;;
23046;SDS011;11691;51.462;6.902;2022-12-17T11:28:47;27.80;;;11.90;;
23046;SDS011;11691;51.462;6.902;2022-12-17T11:38:07;23.13;;;10.83;;
23046;SDS011;11691;51.462;6.902;2022-12-17T11:44:23;30.23;;;12.57;;
23046;SDS011;11691;51.462;6.902;2022-12-17T11:56:44;25.23;;;13.00;;
23046;SDS011;11691;51.462;6.902;2022-12-17T12:00:14;29.37;;;13.47;;
23046;SDS011;11691;51.462;6.902;2022-12-17T12:05:56;33.33;;;14.43;;
23046;SDS011;11691;51.462;6.902;2022-12-17T12:11:52;30.50;;;15.10;;
23046;SDS011;11691;51.462;6.902;2022-12-17T12:14:45;31.77;;;15.20;;
23046;SDS011;11691;51.462;6.902;2022-12-17T12:28:43;33.47;;;14.87;;
23046;SDS011;11691;51.462;6.902;2022-12-17T12:34:33;31.37;;;15.23;;
23046;SDS011;11691;51.462;6.902;2022-12-17T12:37:20;34.43;;;15.43;;
23046;SDS011;11691;51.462;6.902;2022-12-17T12:43:28;37.17;;;15.13;;
23046;SDS011;11691;51.462;6.902;2022-12-17T12:49:05;38.13;;;15.70;;
23046;SDS011;11691;51.462;6.902;2022-12-17T12:51:52;35.23;;;15.47;;
23046;SDS011;11691;51.462;6.902;2022-12-17T12:57:32;43.90;;;17.23;;
23046;SDS011;11691;51.462;6.902;2022-12-17T13:03:25;39.73;;;16.70;;
23046;SDS011;11691;51.462;6.902;2022-12-17T13:06:11;36.07;;;15.90;;
23046;SDS011;11691;51.462;6.902;2022-12-17T13:08:38;38.13;;;15.97;;
23046;SDS011;11691;51.462;6.902;2022-12-17T13:11:08;34.03;;;15.60;;
23046;SDS011;11691;51.462;6.902;2022-12-17T13:13:38;34.67;;;15.93;;
23046;SDS011;11691;51.462;6.902;2022-12-17T13:18:45;35.67;;;15.37;;
23046;SDS011;11691;51.462;6.902;2022-12-17T13:23:40;31.63;;;14.70;;
23046;SDS011;11691;51.462;6.902;2022-12-17T13:28:42;34.80;;;15.47;;
23046;SDS011;11691;51.462;6.902;2022-12-17T13:31:24;29.93;;;15.23;;
23046;SDS011;11691;51.462;6.902;2022-12-17T13:36:24;33.00;;;15.80;;
23046;SDS011;11691;51.462;6.902;2022-12-17T13:41:52;36.57;;;16.60;;
23046;SDS011;11691;51.462;6.902;2022-12-17T13:44:25;35.20;;;15.93;;
23046;SDS011;11691;51.462;6.902;2022-12-17T13:46:57;31.00;;;16.47;;
23046;SDS011;11691;51.462;6.902;2022-12-17T13:49:24;38.07;;;16.37;;
23046;SDS011;11691;51.462;6.902;2022-12-17T13:54:26;33.00;;;16.47;;
23046;SDS011;11691;51.462;6.902;2022-12-17T13:56:52;32.20;;;16.77;;
23046;SDS011;11691;51.462;6.902;2022-12-17T13:59:22;31.90;;;15.53;;
23046;SDS011;11691;51.462;6.902;2022-12-17T14:01:50;36.73;;;16.60;;
23046;SDS011;11691;51.462;6.902;2022-12-17T14:06:53;34.67;;;16.53;;
23046;SDS011;11691;51.462;6.902;2022-12-17T14:09:30;32.97;;;16.17;;
23046;SDS011;11691;51.462;6.902;2022-12-17T14:11:57;31.83;;;16.07;;
23046;SDS011;11691;51.462;6.902;2022-12-17T14:14:42;31.87;;;16.93;;
23046;SDS011;11691;51.462;6.902;2022-12-17T14:17:16;33.57;;;16.00;;
23046;SDS011;11691;51.462;6.902;2022-12-17T14:19:44;32.83;;;16.40;;
23046;SDS011;11691;51.462;6.902;2022-12-17T14:22:22;38.47;;;17.43;;
23046;SDS011;11691;51.462;6.902;2022-12-17T14:25:01;37.70;;;17.53;;
23046;SDS011;11691;51.462;6.902;2022-12-17T14:27:31;32.30;;;16.83;;
23046;SDS011;11691;51.462;6.902;2022-12-17T14:29:58;33.97;;;16.60;;
23046;SDS011;11691;51.462;6.902;2022-12-17T14:32:25;31.70;;;15.50;;
23046;SDS011;11691;51.462;6.902;2022-12-17T14:34:59;31.43;;;15.40;;
23046;SDS011;11691;51.462;6.902;2022-12-17T14:37:25;33.10;;;16.37;;
23046;SDS011;11691;51.462;6.902;2022-12-17T14:39:52;37.03;;;16.00;;
23046;SDS011;11691;51.462;6.902;2022-12-17T14:42:20;35.87;;;15.97;;
23046;SDS011;11691;51.462;6.902;2022-12-17T14:44:54;32.77;;;15.63;;
23046;SDS011;11691;51.462;6.902;2022-12-17T14:47:30;33.47;;;15.97;;
23046;SDS011;11691;51.462;6.902;2022-12-17T14:52:38;35.17;;;17.00;;
23046;SDS011;11691;51.462;6.902;2022-12-17T15:00:37;37.33;;;18.07;;
23046;SDS011;11691;51.462;6.902;2022-12-17T15:03:19;38.37;;;17.67;;
23046;SDS011;11691;51.462;6.902;2022-12-17T15:05:47;38.53;;;16.93;;
23046;SDS011;11691;51.462;6.902;2022-12-17T15:08:16;43.27;;;19.03;;
23046;SDS011;11691;51.462;6.902;2022-12-17T15:10:43;37.97;;;17.53;;
23046;SDS011;11691;51.462;6.902;2022-12-17T15:13:09;37.60;;;18.03;;
23046;SDS011;11691;51.462;6.902;2022-12-17T15:15:35;44.27;;;18.53;;
23046;SDS011;11691;51.462;6.902;2022-12-17T15:18:00;32.53;;;16.97;;
23046;SDS011;11691;51.462;6.902;2022-12-17T15:20:26;36.37;;;17.07;;
23046;SDS011;11691;51.462;6.902;2022-12-17T15:22:53;39.67;;;16.73;;
23046;SDS011;11691;51.462;6.902;2022-12-17T15:25:19;39.63;;;17.93;;
23046;SDS011;11691;51.462;6.902;2022-12-17T15:27:45;36.33;;;17.87;;
23046;SDS011;11691;51.462;6.902;2022-12-17T15:30:15;38.87;;;17.53;;
23046;SDS011;11691;51.462;6.902;2022-12-17T15:32:41;40.47;;;17.30;;
23046;SDS011;11691;51.462;6.902;2022-12-17T15:35:07;39.50;;;17.13;;
23046;SDS011;11691;51.462;6.902;2022-12-17T15:37:33;42.47;;;18.30;;
23046;SDS011;11691;51.462;6.902;2022-12-17T15:40:00;33.90;;;17.57;;
23046;SDS011;11691;51.462;6.902;2022-12-17T15:42:26;37.73;;;17.43;;
23046;SDS011;11691;51.462;6.902;2022-12-17T15:45:10;43.73;;;18.23;;
23046;SDS011;11691;51.462;6.902;2022-12-17T15:47:36;36.93;;;17.63;;
23046;SDS011;11691;51.462;6.902;2022-12-17T15:50:03;38.17;;;18.37;;
23046;SDS011;11691;51.462;6.902;2022-12-17T15:52:29;34.87;;;16.93;;
23046;SDS011;11691;51.462;6.902;2022-12-17T15:54:55;36.57;;;17.53;;
23046;SDS011;11691;51.462;6.902;2022-12-17T15:57:21;34.03;;;17.00;;
23046;SDS011;11691;51.462;6.902;2022-12-17T15:59:47;40.27;;;19.77;;
23046;SDS011;11691;51.462;6.902;2022-12-17T16:02:13;38.23;;;18.70;;
23046;SDS011;11691;51.462;6.902;2022-12-17T16:04:39;37.27;;;18.87;;
23046;SDS011;11691;51.462;6.902;2022-12-17T16:07:05;39.07;;;19.60;;
23046;SDS011;11691;51.462;6.902;2022-12-17T16:09:31;44.50;;;18.80;;
23046;SDS011;11691;51.462;6.902;2022-12-17T16:11:57;38.07;;;18.17;;
23046;SDS011;11691;51.462;6.902;2022-12-17T16:14:23;36.73;;;17.97;;
23046;SDS011;11691;51.462;6.902;2022-12-17T16:16:49;32.43;;;16.73;;
23046;SDS011;11691;51.462;6.902;2022-12-17T16:19:15;36.57;;;18.57;;
23046;SDS011;11691;51.462;6.902;2022-12-17T16:21:42;46.13;;;20.47;;
23046;SDS011;11691;51.462;6.902;2022-12-17T16:24:08;37.10;;;18.00;;
23046;SDS011;11691;51.462;6.902;2022-12-17T16:26:35;39.27;;;18.53;;
23046;SDS011;11691;51.462;6.902;2022-12-17T16:29:02;39.93;;;19.30;;
23046;SDS011;11691;51.462;6.902;2022-12-17T16:31:28;40.63;;;18.90;;
23046;SDS011;11691;51.462;6.902;2022-12-17T16:33:54;34.03;;;18.23;;
23046;SDS011;11691;51.462;6.902;2022-12-17T16:36:20;43.33;;;19.97;;
23046;SDS011;11691;51.462;6.902;2022-12-17T16:38:48;39.03;;;19.00;;
23046;SDS011;11691;51.462;6.902;2022-12-17T16:41:14;48.03;;;21.17;;
23046;SDS011;11691;51.462;6.902;2022-12-17T16:43:41;42.77;;;21.23;;
23046;SDS011;11691;51.462;6.902;2022-12-17T16:46:21;42.57;;;21.17;;
23046;SDS011;11691;51.462;6.902;2022-12-17T16:49:04;47.10;;;22.43;;
23046;SDS011;11691;51.462;6.902;2022-12-17T16:51:30;52.30;;;25.33;;
23046;SDS011;11691;51.462;6.902;2022-12-17T16:53:57;56.83;;;25.83;;
23046;SDS011;11691;51.462;6.902;2022-12-17T16:56:24;51.50;;;24.93;;
23046;SDS011;11691;51.462;6.902;2022-12-17T16:58:51;57.53;;;25.47;;
23046;SDS011;11691;51.462;6.902;2022-12-17T17:01:21;61.00;;;28.60;;
23046;SDS011;11691;51.462;6.902;2022-12-17T17:03:47;60.40;;;29.93;;
23046;SDS011;11691;51.462;6.902;2022-12-17T17:06:14;57.43;;;28.23;;
23046;SDS011;11691;51.462;6.902;2022-12-17T17:08:40;58.63;;;28.13;;
23046;SDS011;11691;51.462;6.902;2022-12-17T17:11:17;56.17;;;26.70;;
23046;SDS011;11691;51.462;6.902;2022-12-17T17:13:45;54.37;;;25.13;;
23046;SDS011;11691;51.462;6.902;2022-12-17T17:16:11;51.57;;;26.47;;
23046;SDS011;11691;51.462;6.902;2022-12-17T17:18:38;52.23;;;24.07;;
23046;SDS011;11691;51.462;6.902;2022-12-17T17:23:48;59.13;;;25.73;;